首页
METAR-TAF:

METAR-TAF

机场 :

迪比克, 艾奥瓦州, 美国

纬度: 42-23-52N, 经度: 090-42-13W, 海拔: 328米

当前天气观测

该预报发布于53分钟前的17:53 UTC
风速3节,风向西北
温度 29°C
湿度 52%
气压 1009 hPa
能見度: 16.1公里
天空无云

METAR: KDBQ 041753Z 32003KT 10SM CLR 29/18 A2980 RMK AO2 SLP082 T02940178 10300 20206 58004

时间: 13:46 (18:46 UTC)

预报

该预报发布于1小时和26分钟前的17:20 UTC
预报有效从04日的 18点(UTC)到 05日的 18点(UTC)
风速4节,风向多变
能見度: 10公里
少量云层高于4000英尺
从 04日的 2100点(UTC)
风速4节,风向西北
能見度: 10公里
散云层高于4000英尺
从 05日的 1200点(UTC)
风速5节,风向
能見度: 10公里
多云层高于25000英尺
从 05日的 1400点(UTC)
风速8节,风向西转西南
能見度: 10公里
多云层高于3000英尺

TAF: KDBQ 041720Z 0418/0518 VRB04KT P6SM FEW040 FM042100 31004KT P6SM SCT040 FM051200 18005KT P6SM BKN250 FM051400 25008KT P6SM BKN030

超过4000个机场的气象观测和天气预报(METAR&TAF报告)。

可查询的气象台以黄色和红色小点在地图上表示。

将鼠标移到小点上方,可查看气象台名称。

然后点击查看天气观测和预报。

如需切换地图:点击带黑十字的绿色按钮放大地图;点击带横线的绿色按钮缩小地图;或者点击绿色箭头查看邻近地区的地图。


METAR-TAF: